createdAt,value
2023-01-15T00:02:18.277Z,4.97
2023-01-15T00:04:46.441Z,5.01
2023-01-15T00:07:14.520Z,5.00
2023-01-15T00:09:42.378Z,4.99
2023-01-15T00:12:10.413Z,5.02
2023-01-15T00:14:38.361Z,5.04
2023-01-15T00:17:06.278Z,5.10
2023-01-15T00:19:34.389Z,5.14
2023-01-15T00:22:02.400Z,5.16
2023-01-15T00:24:48.950Z,5.14
2023-01-15T00:27:35.729Z,5.11
2023-01-15T00:30:03.948Z,5.06
2023-01-15T00:32:31.901Z,5.07
2023-01-15T00:35:00.749Z,5.02
2023-01-15T00:37:29.055Z,4.99
2023-01-15T00:39:57.031Z,5.03
2023-01-15T00:42:24.926Z,5.05
2023-01-15T00:44:52.860Z,5.05
2023-01-15T00:47:20.848Z,5.03
2023-01-15T00:49:50.473Z,5.03
2023-01-15T00:52:18.369Z,5.06
2023-01-15T00:54:48.470Z,5.06
2023-01-15T00:57:16.358Z,5.09
2023-01-15T00:59:44.381Z,5.06
2023-01-15T01:02:12.499Z,5.03
2023-01-15T01:04:40.502Z,5.01
2023-01-15T01:07:09.798Z,4.98
2023-01-15T01:09:37.772Z,4.92
2023-01-15T01:12:05.998Z,4.91
2023-01-15T01:14:33.915Z,4.89
2023-01-15T01:17:01.838Z,4.89
2023-01-15T01:19:29.759Z,4.91
2023-01-15T01:21:57.618Z,4.93
2023-01-15T01:24:25.805Z,4.98
2023-01-15T01:26:54.833Z,4.98
2023-01-15T01:29:23.909Z,4.99
2023-01-15T01:31:52.281Z,5.00
2023-01-15T01:34:21.434Z,4.98
2023-01-15T01:36:49.962Z,5.00
2023-01-15T01:39:19.461Z,5.00
2023-01-15T01:41:48.769Z,5.03
2023-01-15T01:44:32.412Z,4.99
2023-01-15T01:47:07.536Z,4.91
2023-01-15T01:49:37.664Z,4.90
2023-01-15T01:52:10.961Z,4.85
2023-01-15T01:54:39.799Z,4.82
2023-01-15T01:57:09.583Z,4.89
2023-01-15T01:59:38.708Z,4.85
2023-01-15T02:02:07.151Z,4.80
2023-01-15T02:04:36.474Z,4.77
2023-01-15T02:07:04.667Z,4.77
2023-01-15T02:09:33.250Z,4.79
2023-01-15T02:12:12.339Z,4.81
2023-01-15T02:15:03.204Z,4.81
2023-01-15T02:17:50.241Z,4.71
2023-01-15T02:20:38.664Z,4.66
2023-01-15T02:23:09.631Z,4.60
2023-01-15T02:25:43.542Z,4.62
2023-01-15T02:28:21.231Z,4.65
2023-01-15T02:30:56.189Z,4.64
2023-01-15T02:33:31.495Z,4.64
2023-01-15T02:36:06.782Z,4.63
2023-01-15T02:38:48.587Z,4.62
2023-01-15T02:41:22.228Z,4.69
2023-01-15T02:43:53.397Z,4.65
2023-01-15T02:46:28.727Z,4.65
2023-01-15T02:49:00.697Z,4.62
2023-01-15T02:51:44.754Z,4.61
2023-01-15T02:54:16.571Z,4.62
2023-01-15T02:56:47.086Z,4.66
2023-01-15T02:59:27.582Z,4.70
2023-01-15T03:02:01.860Z,4.75
2023-01-15T03:04:40.264Z,4.77
2023-01-15T03:07:19.177Z,4.78
2023-01-15T03:09:49.357Z,4.78
2023-01-15T03:13:02.367Z,4.76
2023-01-15T03:16:14.854Z,4.73
2023-01-15T03:18:52.553Z,4.75
2023-01-15T03:21:32.104Z,4.74
2023-01-15T03:24:04.601Z,4.74
2023-01-15T03:26:32.594Z,4.77
2023-01-15T03:29:03.684Z,4.77
2023-01-15T03:31:34.076Z,4.79
2023-01-15T03:34:02.604Z,4.79
2023-01-15T03:36:30.905Z,4.76
2023-01-15T03:39:02.907Z,4.72
2023-01-15T03:42:10.752Z,4.80
2023-01-15T03:45:03.305Z,4.75
2023-01-15T03:48:02.413Z,4.75
2023-01-15T03:50:48.268Z,4.73
2023-01-15T03:53:45.415Z,4.74
2023-01-15T03:56:35.760Z,4.78
2023-01-15T03:59:22.442Z,4.70
2023-01-15T04:01:56.950Z,4.68
2023-01-15T04:04:27.659Z,4.64
2023-01-15T04:06:58.315Z,4.65
2023-01-15T04:09:26.626Z,4.69
2023-01-15T04:12:01.407Z,4.69
2023-01-15T04:14:34.296Z,4.68
2023-01-15T04:17:07.792Z,4.61
2023-01-15T04:19:35.863Z,4.59
2023-01-15T04:22:06.407Z,4.61
2023-01-15T04:24:34.519Z,4.63
2023-01-15T04:27:02.347Z,4.61
2023-01-15T04:29:30.317Z,4.59
2023-01-15T04:31:58.204Z,4.61
2023-01-15T04:34:27.812Z,4.62
2023-01-15T04:36:56.734Z,4.64
2023-01-15T04:39:24.701Z,4.63
2023-01-15T04:42:11.225Z,4.64
2023-01-15T04:44:39.674Z,4.67
2023-01-15T04:47:08.063Z,4.66
2023-01-15T04:49:36.118Z,4.62
2023-01-15T04:52:04.571Z,4.64
2023-01-15T04:54:32.552Z,4.61
2023-01-15T04:57:00.524Z,4.56
2023-01-15T04:59:28.664Z,4.56
2023-01-15T05:02:06.444Z,4.59
2023-01-15T05:04:36.066Z,4.57
2023-01-15T05:07:05.730Z,4.60
2023-01-15T05:09:33.927Z,4.61
2023-01-15T05:12:02.404Z,4.58
2023-01-15T05:14:30.711Z,4.56
2023-01-15T05:16:58.630Z,4.54
2023-01-15T05:19:26.585Z,4.56
2023-01-15T05:21:54.683Z,4.61
2023-01-15T05:24:22.675Z,4.62
2023-01-15T05:26:50.626Z,4.62
2023-01-15T05:29:18.667Z,4.61
2023-01-15T05:31:46.838Z,4.61
2023-01-15T05:34:15.427Z,4.59
2023-01-15T05:36:43.341Z,4.57
2023-01-15T05:39:11.494Z,4.54
2023-01-15T05:41:51.821Z,4.51
2023-01-15T05:44:26.979Z,4.46
2023-01-15T05:46:57.884Z,4.47
2023-01-15T05:49:27.117Z,4.50
2023-01-15T05:51:55.897Z,4.48
2023-01-15T05:54:32.385Z,4.46
2023-01-15T05:57:01.597Z,4.44
2023-01-15T05:59:30.763Z,4.43
2023-01-15T06:01:59.337Z,4.42
2023-01-15T06:04:27.398Z,4.41
2023-01-15T06:06:56.871Z,4.37
2023-01-15T06:09:28.944Z,4.33
2023-01-15T06:11:57.832Z,4.30
2023-01-15T06:14:25.879Z,4.27
2023-01-15T06:16:53.824Z,4.26
2023-01-15T06:19:21.787Z,4.26
2023-01-15T06:21:49.890Z,4.26
2023-01-15T06:24:20.129Z,4.22
2023-01-15T06:26:48.267Z,4.21
2023-01-15T06:29:19.073Z,4.19
2023-01-15T06:31:48.288Z,4.17
2023-01-15T06:34:16.456Z,4.15
2023-01-15T06:36:44.440Z,4.17
2023-01-15T06:39:12.281Z,4.16
2023-01-15T06:41:58.508Z,4.22
2023-01-15T06:44:45.122Z,4.21
2023-01-15T06:47:23.182Z,4.17
2023-01-15T06:49:58.033Z,4.13
2023-01-15T06:52:28.471Z,4.11
2023-01-15T06:54:56.573Z,4.07
2023-01-15T06:57:24.744Z,4.04
2023-01-15T06:59:52.636Z,4.00
2023-01-15T07:02:21.713Z,3.99
2023-01-15T07:04:51.083Z,4.03
2023-01-15T07:07:20.514Z,4.05
2023-01-15T07:09:48.617Z,4.08
2023-01-15T07:12:17.510Z,4.10
2023-01-15T07:14:45.456Z,4.12
2023-01-15T07:17:14.115Z,4.17
2023-01-15T07:19:42.571Z,4.20
2023-01-15T07:22:11.149Z,4.22
2023-01-15T07:24:39.385Z,4.24
2023-01-15T07:27:08.259Z,4.23
2023-01-15T07:29:36.130Z,4.28
2023-01-15T07:32:04.562Z,4.29
2023-01-15T07:34:32.565Z,4.32
2023-01-15T07:37:00.587Z,4.33
2023-01-15T07:39:29.371Z,4.34
2023-01-15T07:42:15.745Z,4.44
2023-01-15T07:45:05.265Z,4.46
2023-01-15T07:47:51.849Z,4.47
2023-01-15T07:50:23.049Z,4.48
2023-01-15T07:52:53.147Z,4.50
2023-01-15T07:55:22.709Z,4.48
2023-01-15T07:57:50.802Z,4.46
2023-01-15T08:00:28.666Z,4.50
2023-01-15T08:02:56.698Z,4.56
2023-01-15T08:05:24.871Z,4.60
2023-01-15T08:07:52.991Z,4.63
2023-01-15T08:10:21.114Z,4.65
2023-01-15T08:13:10.908Z,4.68
2023-01-15T08:15:41.177Z,4.73
2023-01-15T08:18:09.385Z,4.76
2023-01-15T08:20:37.831Z,4.83
2023-01-15T08:23:06.073Z,4.94
2023-01-15T08:25:34.199Z,4.99
2023-01-15T08:28:03.329Z,5.03
2023-01-15T08:30:31.517Z,5.09
2023-01-15T08:33:03.438Z,5.16
2023-01-15T08:35:34.271Z,5.21
2023-01-15T08:38:07.119Z,5.23
2023-01-15T08:40:56.517Z,5.26
2023-01-15T08:43:26.503Z,5.30
2023-01-15T08:45:59.386Z,5.36
2023-01-15T08:48:32.785Z,5.41
2023-01-15T08:51:08.030Z,5.58
2023-01-15T08:53:36.628Z,5.62
2023-01-15T08:56:12.075Z,5.66
2023-01-15T08:58:40.055Z,5.72
2023-01-15T09:01:17.967Z,5.80
2023-01-15T09:03:58.878Z,5.91
2023-01-15T09:06:30.869Z,5.97
2023-01-15T09:09:01.587Z,6.03
2023-01-15T09:11:29.547Z,6.06
2023-01-15T09:13:57.459Z,6.07
2023-01-15T09:16:27.863Z,6.14
2023-01-15T09:18:55.940Z,6.19
2023-01-15T09:21:23.827Z,6.18
2023-01-15T09:23:51.733Z,6.13
2023-01-15T09:26:28.822Z,6.14
2023-01-15T09:28:56.926Z,6.19
2023-01-15T09:31:27.633Z,6.21
2023-01-15T09:33:57.598Z,6.24
2023-01-15T09:36:33.576Z,6.28
2023-01-15T09:39:03.085Z,6.28
2023-01-15T09:42:08.635Z,6.28
2023-01-15T09:44:45.853Z,6.21
2023-01-15T09:47:20.869Z,6.21
2023-01-15T09:50:26.283Z,6.29
2023-01-15T09:53:17.436Z,6.40
2023-01-15T09:55:53.289Z,6.47
2023-01-15T09:58:29.374Z,6.49
2023-01-15T10:00:58.281Z,6.51
2023-01-15T10:03:42.913Z,6.54
2023-01-15T10:06:34.391Z,6.63
2023-01-15T10:09:31.593Z,6.68
2023-01-15T10:12:31.935Z,6.69
2023-01-15T10:15:03.978Z,6.71
2023-01-15T10:17:44.282Z,6.71
2023-01-15T10:20:29.354Z,6.66
2023-01-15T10:23:03.253Z,6.64
2023-01-15T10:25:48.383Z,6.65
2023-01-15T10:28:32.088Z,6.57
2023-01-15T10:31:12.635Z,6.57
2023-01-15T10:34:22.063Z,6.54
2023-01-15T10:37:41.948Z,6.57
2023-01-15T10:40:15.008Z,6.58
2023-01-15T10:43:08.115Z,6.65
2023-01-15T10:45:53.964Z,6.64
2023-01-15T10:48:27.234Z,6.66
2023-01-15T10:50:56.934Z,6.71
2023-01-15T10:53:32.010Z,6.70
2023-01-15T10:56:30.886Z,6.81
2023-01-15T10:59:12.884Z,6.80
2023-01-15T11:01:41.181Z,6.79
2023-01-15T11:04:13.480Z,6.80
2023-01-15T11:06:42.404Z,6.76
2023-01-15T11:09:22.997Z,6.77
2023-01-15T11:12:01.062Z,6.87
2023-01-15T11:14:59.547Z,6.91
2023-01-15T11:17:51.829Z,6.94
2023-01-15T11:20:48.096Z,6.95
2023-01-15T11:23:19.950Z,6.89
2023-01-15T11:25:51.032Z,6.87
2023-01-15T11:28:21.292Z,6.91
2023-01-15T11:30:55.521Z,7.04
2023-01-15T11:33:26.887Z,7.09
2023-01-15T11:35:58.557Z,7.08
2023-01-15T11:38:29.466Z,7.04
2023-01-15T11:41:01.514Z,7.04
2023-01-15T11:43:51.086Z,7.06
2023-01-15T11:46:57.938Z,7.07
2023-01-15T11:49:44.445Z,7.08
2023-01-15T11:52:21.969Z,7.10
2023-01-15T11:54:54.911Z,7.08
2023-01-15T11:57:30.265Z,7.06
2023-01-15T11:59:59.433Z,7.07
2023-01-15T12:02:47.879Z,7.12
2023-01-15T12:05:29.425Z,7.19
2023-01-15T12:08:01.264Z,7.20
2023-01-15T12:10:52.932Z,7.17
2023-01-15T12:13:30.590Z,7.15
2023-01-15T12:16:07.517Z,7.11
2023-01-15T12:18:56.794Z,7.17
2023-01-15T12:21:24.727Z,7.19
2023-01-15T12:24:01.994Z,7.28
2023-01-15T12:26:41.667Z,7.30
2023-01-15T12:29:16.742Z,7.29
2023-01-15T12:31:55.487Z,7.31
2023-01-15T12:34:37.415Z,7.32
2023-01-15T12:37:15.106Z,7.38
2023-01-15T12:39:59.173Z,7.37
2023-01-15T12:42:48.867Z,7.36
2023-01-15T12:45:22.429Z,7.34
2023-01-15T12:48:10.127Z,7.32
2023-01-15T12:50:38.151Z,7.33
2023-01-15T12:53:16.974Z,7.30
2023-01-15T12:56:09.035Z,7.30
2023-01-15T12:58:58.042Z,7.32
2023-01-15T13:02:10.561Z,7.32
2023-01-15T13:04:57.320Z,7.31
2023-01-15T13:07:36.048Z,7.34
2023-01-15T13:10:18.172Z,7.34
2023-01-15T13:12:46.141Z,7.34
2023-01-15T13:15:17.790Z,7.33
2023-01-15T13:18:14.731Z,7.35
2023-01-15T13:20:47.250Z,7.37
2023-01-15T13:23:44.511Z,7.40
2023-01-15T13:26:42.207Z,7.40
2023-01-15T13:29:31.685Z,7.39
2023-01-15T13:32:13.507Z,7.40
2023-01-15T13:34:58.939Z,7.39
2023-01-15T13:37:36.569Z,7.42
2023-01-15T13:40:16.140Z,7.43
2023-01-15T13:42:49.771Z,7.42
2023-01-15T13:45:28.122Z,7.40
2023-01-15T13:48:02.497Z,7.39
2023-01-15T13:50:33.256Z,7.39
2023-01-15T13:53:25.945Z,7.39
2023-01-15T13:55:57.058Z,7.38
2023-01-15T13:58:26.789Z,7.37
2023-01-15T14:01:30.076Z,7.36
2023-01-15T14:04:00.313Z,7.36
2023-01-15T14:06:49.770Z,7.33
2023-01-15T14:09:20.569Z,7.30
2023-01-15T14:12:07.776Z,7.28
2023-01-15T14:14:47.674Z,7.24
2023-01-15T14:17:52.918Z,7.25
2023-01-15T14:20:45.885Z,7.25
2023-01-15T14:23:36.007Z,7.25
2023-01-15T14:26:15.241Z,7.26
2023-01-15T14:29:06.516Z,7.23
2023-01-15T14:31:59.281Z,7.24
2023-01-15T14:34:30.429Z,7.19
2023-01-15T14:37:21.561Z,7.15
2023-01-15T14:39:49.572Z,7.10
2023-01-15T14:42:41.923Z,7.05
2023-01-15T14:45:12.804Z,7.02
2023-01-15T14:47:48.682Z,6.98
2023-01-15T14:50:28.108Z,6.96
2023-01-15T14:53:01.979Z,6.89
2023-01-15T14:55:30.932Z,6.84
2023-01-15T14:58:09.139Z,6.79
2023-01-15T15:00:44.179Z,6.74
2023-01-15T15:03:20.957Z,6.70
2023-01-15T15:05:49.834Z,6.65
2023-01-15T15:08:19.782Z,6.61
2023-01-15T15:10:54.944Z,6.58
2023-01-15T15:13:29.416Z,6.57
2023-01-15T15:16:24.686Z,6.55
2023-01-15T15:19:15.107Z,6.55
2023-01-15T15:21:46.919Z,6.55
2023-01-15T15:24:35.203Z,6.54
2023-01-15T15:27:15.473Z,6.54
2023-01-15T15:29:44.097Z,6.52
2023-01-15T15:32:17.635Z,6.50
2023-01-15T15:34:51.322Z,6.48
2023-01-15T15:37:27.035Z,6.47
2023-01-15T15:40:02.262Z,6.45
2023-01-15T15:42:51.809Z,6.43
2023-01-15T15:45:47.373Z,6.39
2023-01-15T15:48:53.232Z,6.35
2023-01-15T15:51:33.525Z,6.33
2023-01-15T15:54:05.807Z,6.28
2023-01-15T15:56:34.980Z,6.25
2023-01-15T15:59:05.387Z,6.23
2023-01-15T16:01:39.980Z,6.22
2023-01-15T16:04:17.803Z,6.22
2023-01-15T16:06:47.138Z,6.22
2023-01-15T16:09:21.570Z,6.20
2023-01-15T16:11:52.851Z,6.18
2023-01-15T16:14:22.702Z,6.18
2023-01-15T16:16:52.322Z,6.17
2023-01-15T16:19:25.533Z,6.12
2023-01-15T16:21:54.965Z,6.06
2023-01-15T16:24:28.946Z,6.02
2023-01-15T16:27:11.990Z,5.99
2023-01-15T16:29:40.419Z,5.93
2023-01-15T16:32:13.527Z,5.89
2023-01-15T16:34:42.475Z,5.84
2023-01-15T16:37:37.267Z,5.81
2023-01-15T16:40:06.261Z,5.77
2023-01-15T16:42:43.838Z,5.74
2023-01-15T16:45:20.548Z,5.72
2023-01-15T16:48:25.675Z,5.70
2023-01-15T16:50:53.700Z,5.64
2023-01-15T16:53:37.983Z,5.57
2023-01-15T16:56:26.494Z,5.49
2023-01-15T16:58:54.489Z,5.42
2023-01-15T17:01:28.380Z,5.34
2023-01-15T17:03:56.351Z,5.30
2023-01-15T17:06:27.577Z,5.27
2023-01-15T17:08:58.797Z,5.18
2023-01-15T17:11:31.151Z,5.10
2023-01-15T17:14:25.368Z,5.05
2023-01-15T17:17:18.033Z,4.99
2023-01-15T17:19:46.090Z,4.94
2023-01-15T17:22:16.947Z,4.84
2023-01-15T17:25:01.585Z,4.71
2023-01-15T17:27:30.698Z,4.59
2023-01-15T17:29:58.845Z,4.54
2023-01-15T17:32:40.518Z,4.49
2023-01-15T17:35:23.443Z,4.42
2023-01-15T17:37:51.678Z,4.42
2023-01-15T17:40:19.958Z,4.40
2023-01-15T17:42:48.232Z,4.34
2023-01-15T17:45:19.239Z,4.30
2023-01-15T17:47:47.659Z,4.29
2023-01-15T17:50:17.051Z,4.27
2023-01-15T17:52:45.860Z,4.26
2023-01-15T17:55:36.086Z,4.20
2023-01-15T17:58:23.341Z,4.19
2023-01-15T18:01:12.264Z,4.16
2023-01-15T18:04:11.933Z,4.17
2023-01-15T18:06:45.894Z,4.24
2023-01-15T18:09:14.433Z,4.24
2023-01-15T18:11:42.610Z,4.26
2023-01-15T18:14:10.521Z,4.26
2023-01-15T18:16:39.305Z,4.25
2023-01-15T18:19:07.399Z,4.23
2023-01-15T18:21:41.540Z,4.25
2023-01-15T18:24:11.966Z,4.27
2023-01-15T18:26:41.904Z,4.28
2023-01-15T18:29:10.829Z,4.22
2023-01-15T18:31:40.143Z,4.20
2023-01-15T18:34:08.965Z,4.21
2023-01-15T18:36:37.025Z,4.23
2023-01-15T18:39:07.816Z,4.23
2023-01-15T18:41:36.305Z,4.25
2023-01-15T18:44:34.643Z,4.25
2023-01-15T18:47:09.935Z,4.25
2023-01-15T18:49:38.896Z,4.25
2023-01-15T18:52:29.025Z,4.16
2023-01-15T18:54:57.398Z,4.07
2023-01-15T18:57:25.752Z,4.03
2023-01-15T18:59:53.747Z,3.96
2023-01-15T19:02:22.301Z,3.96
2023-01-15T19:04:50.434Z,3.89
2023-01-15T19:07:18.621Z,3.87
2023-01-15T19:09:46.569Z,3.86
2023-01-15T19:12:17.001Z,3.79
2023-01-15T19:15:03.428Z,3.77
2023-01-15T19:17:50.806Z,3.75
2023-01-15T19:20:19.932Z,3.75
2023-01-15T19:23:00.277Z,3.79
2023-01-15T19:25:39.267Z,3.73
2023-01-15T19:28:09.477Z,3.69
2023-01-15T19:30:39.627Z,3.68
2023-01-15T19:33:09.152Z,3.65
2023-01-15T19:35:39.342Z,3.67
2023-01-15T19:38:08.607Z,3.63
2023-01-15T19:40:40.716Z,3.65
2023-01-15T19:43:28.981Z,3.64
2023-01-15T19:46:15.772Z,3.62
2023-01-15T19:49:02.592Z,3.60
2023-01-15T19:51:49.209Z,3.56
2023-01-15T19:54:37.117Z,3.60
2023-01-15T19:57:05.089Z,3.57
2023-01-15T19:59:33.054Z,3.55
2023-01-15T20:02:03.561Z,3.55
2023-01-15T20:04:31.639Z,3.59
2023-01-15T20:06:59.590Z,3.61
2023-01-15T20:09:27.579Z,3.61
2023-01-15T20:12:14.445Z,3.59
2023-01-15T20:14:42.414Z,3.54
2023-01-15T20:17:11.580Z,3.54
2023-01-15T20:19:39.751Z,3.60
2023-01-15T20:22:13.572Z,3.63
2023-01-15T20:24:46.640Z,3.70
2023-01-15T20:27:14.776Z,3.68
2023-01-15T20:29:51.972Z,3.72
2023-01-15T20:32:20.191Z,3.73
2023-01-15T20:34:48.484Z,3.72
2023-01-15T20:37:17.128Z,3.73
2023-01-15T20:39:45.261Z,3.78
2023-01-15T20:42:31.956Z,3.76
2023-01-15T20:45:03.397Z,3.82
2023-01-15T20:47:50.745Z,3.84
2023-01-15T20:50:18.687Z,3.83
2023-01-15T20:52:48.705Z,3.79
2023-01-15T20:55:18.032Z,3.75
2023-01-15T20:57:46.050Z,3.76
2023-01-15T21:00:20.797Z,3.77
2023-01-15T21:02:48.911Z,3.76
2023-01-15T21:05:17.286Z,3.77
2023-01-15T21:07:45.228Z,3.83
2023-01-15T21:10:14.394Z,3.93
2023-01-15T21:12:42.601Z,4.02
2023-01-15T21:15:11.856Z,4.06
2023-01-15T21:17:41.141Z,4.13
2023-01-15T21:20:12.033Z,4.18
2023-01-15T21:22:42.828Z,4.20
2023-01-15T21:25:13.218Z,4.22
2023-01-15T21:27:41.311Z,4.20
2023-01-15T21:30:10.157Z,4.22
2023-01-15T21:32:38.148Z,4.24
2023-01-15T21:35:07.084Z,4.28
2023-01-15T21:37:35.276Z,4.32
2023-01-15T21:40:03.377Z,4.37
2023-01-15T21:42:49.889Z,4.42
2023-01-15T21:45:19.302Z,4.45
2023-01-15T21:47:47.227Z,4.47
2023-01-15T21:50:18.650Z,4.55
2023-01-15T21:52:48.757Z,4.57
2023-01-15T21:55:16.947Z,4.62
2023-01-15T21:57:44.844Z,4.66
2023-01-15T22:00:13.503Z,4.68
2023-01-15T22:02:42.234Z,4.73
2023-01-15T22:05:10.532Z,4.78
2023-01-15T22:07:38.596Z,4.83
2023-01-15T22:10:07.546Z,4.85
2023-01-15T22:12:39.454Z,4.88
2023-01-15T22:15:08.236Z,4.90
2023-01-15T22:17:36.104Z,4.96
2023-01-15T22:20:06.232Z,5.02
2023-01-15T22:22:38.913Z,5.06
2023-01-15T22:25:08.851Z,5.08
2023-01-15T22:27:40.880Z,5.12
2023-01-15T22:30:11.801Z,5.14
2023-01-15T22:32:39.695Z,5.19
2023-01-15T22:35:08.757Z,5.25
2023-01-15T22:37:36.701Z,5.28
2023-01-15T22:40:05.840Z,5.30
2023-01-15T22:42:33.757Z,5.31
2023-01-15T22:45:04.770Z,5.33
2023-01-15T22:47:32.821Z,5.39
2023-01-15T22:50:00.984Z,5.51
2023-01-15T22:52:28.996Z,5.61
2023-01-15T22:54:56.952Z,5.67
2023-01-15T22:57:24.876Z,5.71
2023-01-15T22:59:53.013Z,5.76
2023-01-15T23:02:40.942Z,5.81
2023-01-15T23:05:10.616Z,5.83
2023-01-15T23:07:41.297Z,5.83
2023-01-15T23:10:11.710Z,5.82
2023-01-15T23:12:41.779Z,5.85
2023-01-15T23:15:13.561Z,5.87
2023-01-15T23:17:42.127Z,5.86
2023-01-15T23:20:11.748Z,5.87
2023-01-15T23:22:40.224Z,5.85
2023-01-15T23:25:09.326Z,5.86
2023-01-15T23:27:37.399Z,5.87
2023-01-15T23:30:06.323Z,5.85
2023-01-15T23:32:34.442Z,5.85
2023-01-15T23:35:02.351Z,5.83
2023-01-15T23:37:30.279Z,5.82
2023-01-15T23:39:58.198Z,5.84
2023-01-15T23:42:44.717Z,5.85
2023-01-15T23:45:31.556Z,5.89
2023-01-15T23:47:59.764Z,5.91
2023-01-15T23:50:27.674Z,5.92
2023-01-15T23:52:55.530Z,5.93
2023-01-15T23:55:23.462Z,5.92
2023-01-15T23:57:51.369Z,5.93
